Etusivu
METAR-TAF:

METAR-TAF

Lentoasemat :

Nassau, Bahama

Lynden Pindlingin kansainvälinen lentoasema

Leveyspiiri: 25-03N, Pituuspiiri: 077-28W, korkeus merenpinnasta: 3 m

Tämänhetkinen sää

Tämä raportti tehtiin 46 minuuttia sitten, kello 23.00 UTC
Tuuli 13 kn idästä
Lämpötila 28°C
Kosteus 79%
Ilmanpaine 1019 hPa
Näkyvyys 10 km tai enemmän
Hajonneita pilviä 1800 ft:n korkeudessa, Kasvava cumulus-pilvi.

METAR: MYNN 282300Z 09013KT 9999 BKN018TCU 28/24 A3009 RMK TCU OVHD/SCT ALQDS PKWND 17KT

Aika: 19:46 (23:46 UTC)

Sääennuste

Tämä raportti tehtiin 2 tuntia ja 16 minuuttia sitten, kello 21.30 UTC
Ennuste voimassa 29. päivästä klo 00 UTC - 30. päivään klo 00 UTC
Tuuli 14 kn idästä
Näkyvyys 10 km tai enemmän
Hajonneita pilviä 1800 ft:n korkeudessa

TAF: MYNN 282130Z 2900/3000 10014KT 9999 BKN018

Säähavainnot ja -ennusteet yli 4000 lentoasemalta (METAR- ja TAF-raportit).

Käytössä olevat sääasemat on merkitty karttaan keltaisilla ja punaisilla pisteillä.

Aseta hiiri pisteen päälle nähdäksesi sääaseman nimen.

Klikkaa sitten nähdäksesi säähavainnot ja -ennusteet.

Kartan vaihtaminen: klikkaa mustalla rastilla varustettuja vihreitä pisteitä, niin voit zoomata sisään; viivalla varustettua vihreää pistettä, niin voit zoomata ulos tai vihreitä nuolia, niin pääset viereisille kartoille.


METAR-TAF: